Agoura, California
Current Conditions -  °F | °C
As of 2:51 PM on Saturday 22 Nov 2014 (Local Time) from KVNY Reporting Station
Clear Clear  
Wind Chill: 71°   Ceiling: Unl
Heat Index: 71°   Visibility: 10mi
Dew Point: 44°   Wind: 12mph
Humidity: 38%   Direction: 150°SSE
Pressure: 30"   Gusts: NA
Location:  34.1232°N, 118.77°W
Report Text: KVNY 222251Z 15010KT 10SM CLR 22/07 A3000 RMK AO2 SLP153 T02170067
Loading
Personal Weather Stations






























Interactive Weather Map New forecast layout! Learn more

10-Day Weather Forecast

Advertisements
Track Severe Weather on mobile